| time (UTC) | temp F | wind direction | speed MPH | gust MPH | rain 1hr in | rain 24hr in | rain mn in | humidity % | barometer mb |
| 20260904110011 | 76 | 93 | 2.0 | 7.0 | 0.00 | 0.00 | 0.00 | 91 | 1012.8 |
| 20260904104511 | 76 | 124 | 2.0 | 7.0 | 0.00 | 0.00 | 0.00 | 91 | 1012.4 |
| 20260904103007 | 76 | 159 | 4.0 | 8.0 | 0.00 | 0.00 | 0.00 | 90 | 1012.4 |
| 20260904101511 | 77 | 197 | 4.0 | 7.0 | 0.00 | 0.00 | 0.00 | 90 | 1012.5 |
| 20260904100007 | 77 | 143 | 2.0 | 6.0 | 0.00 | 0.00 | 0.00 | 90 | 1012.5 |
| 20260904094511 | 77 | 149 | 3.0 | 8.0 | 0.00 | 0.00 | 0.00 | 90 | 1012.3 |
| 20260904093011 | 77 | 205 | 3.0 | 8.0 | 0.00 | 0.00 | 0.00 | 89 | 1012.2 |
| 20260904091503 | 77 | 176 | 3.0 | 7.0 | 0.00 | 0.00 | 0.00 | 89 | 1012.3 |
| 20260904090003 | 77 | 158 | 3.0 | 7.0 | 0.00 | 0.00 | 0.00 | 89 | 1012.3 |
| 20260904084502 | 77 | 200 | 5.0 | 9.0 | 0.00 | 0.00 | 0.00 | 89 | 1012.3 |
| 20260904083100 | 77 | 174 | 4.0 | 10.0 | 0.00 | 0.00 | 0.00 | 88 | 1012.3 |
| 20260904081558 | 77 | 205 | 5.0 | 10.0 | 0.00 | 0.00 | 0.00 | 88 | 1012.2 |
| 20260904080057 | 77 | 218 | 4.0 | 10.0 | 0.00 | 0.00 | 0.00 | 87 | 1012.3 |
| 20260904074555 | 78 | 181 | 6.0 | 12.0 | 0.00 | 0.00 | 0.00 | 87 | 1012.3 |
| 20260904073056 | 78 | 204 | 5.0 | 12.0 | 0.00 | 0.00 | 0.00 | 86 | 1012.5 |
| 20260904071557 | 78 | 159 | 7.0 | 12.0 | 0.00 | 0.00 | 0.00 | 86 | 1012.6 |
| 20260904070050 | 78 | 230 | 7.0 | 16.0 | 0.00 | 0.00 | 0.00 | 85 | 1012.6 |
| 20260904064549 | 78 | 155 | 6.0 | 15.0 | 0.00 | 0.00 | 0.00 | 85 | 1012.7 |
| 20260904063050 | 78 | 162 | 5.0 | 12.0 | 0.00 | 0.00 | 0.00 | 84 | 1012.8 |
| 20260904061545 | 78 | 166 | 7.0 | 13.0 | 0.00 | 0.00 | 0.00 | 83 | 1012.8 |
| 20260904060042 | 78 | 162 | 6.0 | 11.0 | 0.00 | 0.00 | 0.00 | 82 | 1012.8 |
| 20260904054539 | 78 | 164 | 6.0 | 11.0 | 0.00 | 0.00 | 0.00 | 82 | 1012.8 |
| 20260904053037 | 78 | 150 | 5.0 | 11.0 | 0.00 | 0.00 | 0.00 | 81 | 1012.7 |
| 20260904051535 | 78 | 134 | 5.0 | 9.0 | 0.00 | 0.00 | 0.00 | 81 | 1012.5 |
| 20260904050033 | 78 | 139 | 4.0 | 9.0 | 0.00 | 0.00 | 0.00 | 80 | 1012.5 |
| 20260904044536 | 78 | 141 | 5.0 | 10.0 | 0.00 | 0.00 | 0.00 | 79 | 1012.5 |
| 20260904043031 | 79 | 145 | 5.0 | 13.0 | 0.00 | 0.00 | 0.00 | 79 | 1012.5 |
| 20260904041529 | 79 | 157 | 7.0 | 14.0 | 0.00 | 0.00 | 0.00 | 78 | 1012.4 |
| 20260904040029 | 79 | 129 | 6.0 | 16.0 | 0.00 | 0.00 | 0.00 | 77 | 1012.4 |
| 20260904034530 | 79 | 131 | 7.0 | 14.0 | 0.00 | 0.00 | 0.00 | 76 | 1012.4 |
| 20260904033036 | 80 | 127 | 5.0 | 11.0 | 0.00 | 0.00 | 0.00 | 75 | 1012.3 |
| 20260904031528 | 80 | 122 | 5.0 | 12.0 | 0.00 | 0.00 | 0.00 | 74 | 1012.2 |
| 20260904030027 | 81 | 126 | 8.0 | 16.0 | 0.00 | 0.00 | 0.00 | 72 | 1012.0 |
| 20260904024527 | 81 | 147 | 7.0 | 14.0 | 0.00 | 0.00 | 0.00 | 72 | 1011.8 |
| 20260904023025 | 81 | 109 | 6.0 | 14.0 | 0.00 | 0.00 | 0.00 | 73 | 1011.7 |
| 20260904021625 | 81 | 69 | 5.0 | 11.0 | 0.00 | 0.00 | 0.00 | 73 | 1011.6 |
| 20260904020024 | 81 | 134 | 4.0 | 10.0 | 0.00 | 0.00 | 0.00 | 72 | 1011.2 |
| 20260904014523 | 82 | 127 | 5.0 | 12.0 | 0.00 | 0.00 | 0.00 | 71 | 1010.9 |
| 20260904013022 | 82 | 113 | 4.0 | 11.0 | 0.00 | 0.00 | 0.00 | 70 | 1011.0 |
| 20260904011522 | 83 | 96 | 5.0 | 12.0 | 0.00 | 0.00 | 0.00 | 68 | 1010.8 |
| 20260904010022 | 83 | 165 | 6.0 | 13.0 | 0.00 | 0.00 | 0.00 | 67 | 1010.8 |
| 20260904004521 | 84 | 109 | 6.0 | 15.0 | 0.00 | 0.00 | 0.00 | 65 | 1010.8 |
| 20260904003024 | 85 | 122 | 9.0 | 15.0 | 0.00 | 0.00 | 0.00 | 63 | 1010.8 |
| 20260904001519 | 85 | 80 | 8.0 | 16.0 | 0.00 | 0.00 | 0.00 | 62 | 1010.7 |
| 20260904000019 | 86 | 95 | 6.0 | 15.0 | 0.00 | 0.00 | 0.00 | 61 | 1010.5 |
| 20260903234518 | 86 | 117 | 8.0 | 16.0 | 0.00 | 0.00 | 0.00 | 62 | 1010.5 |
| 20260903233017 | 87 | 107 | 10.0 | 18.0 | 0.00 | 0.00 | 0.00 | 61 | 1010.4 |
| 20260903231517 | 89 | 110 | 11.0 | 22.0 | 0.00 | 0.00 | 0.00 | 60 | 1010.2 |
| 20260903230032 | 90 | 122 | 14.0 | 27.0 | 0.00 | 0.00 | 0.00 | 53 | 1010.2 |
| 20260903224518 | 90 | 113 | 6.0 | 13.0 | 0.00 | 0.00 | 0.00 | 55 | 1009.8 |
| 20260903223013 | 90 | 153 | 5.0 | 14.0 | 0.00 | 0.00 | 0.00 | 57 | 1009.9 |
| 20260903221515 | 94 | 169 | 11.0 | 18.0 | 0.00 | 0.00 | 0.00 | 46 | 1009.7 |
| 20260903220012 | 95 | 117 | 6.0 | 17.0 | 0.00 | 0.00 | 0.00 | 45 | 1009.5 |
| 20260903214518 | 96 | 95 | 4.0 | 13.0 | 0.00 | 0.00 | 0.00 | 43 | 1009.6 |
| 20260903213017 | 96 | 115 | 4.0 | 11.0 | 0.00 | 0.00 | 0.00 | 43 | 1009.7 |
| 20260903211508 | 97 | 124 | 8.0 | 14.0 | 0.00 | 0.00 | 0.00 | 41 | 1009.8 |
| 20260903210005 | 98 | 179 | 1.0 | 11.0 | 0.00 | 0.00 | 0.00 | 41 | 1010.0 |
| 20260903204504 | 96 | 212 | 5.0 | 10.0 | 0.00 | 0.00 | 0.00 | 43 | 1010.2 |
| 20260903203004 | 96 | 134 | 5.0 | 12.0 | 0.00 | 0.00 | 0.00 | 44 | 1010.5 |
| 20260903201600 | 97 | 172 | 4.0 | 9.0 | 0.00 | 0.00 | 0.00 | 43 | 1010.6 |
| 20260903200058 | 97 | 185 | 5.0 | 11.0 | 0.00 | 0.00 | 0.00 | 42 | 1010.8 |
| 20260903194603 | 97 | 183 | 5.0 | 11.0 | 0.00 | 0.00 | 0.00 | 42 | 1010.8 |
| 20260903193052 | 95 | 58 | 3.0 | 13.0 | 0.00 | 0.00 | 0.00 | 46 | 1011.0 |
| 20260903191550 | 95 | 92 | 2.0 | 10.0 | 0.00 | 0.00 | 0.00 | 45 | 1011.4 |
| 20260903190048 | 95 | 281 | 5.0 | 14.0 | 0.00 | 0.00 | 0.00 | 47 | 1011.5 |
| 20260903184546 | 95 | 185 | 3.0 | 14.0 | 0.00 | 0.00 | 0.00 | 46 | 1011.8 |
| 20260903183043 | 94 | 200 | 5.0 | 14.0 | 0.00 | 0.00 | 0.00 | 49 | 1012.0 |
| 20260903181540 | 94 | 207 | 7.0 | 14.0 | 0.00 | 0.00 | 0.00 | 48 | 1012.3 |
| 20260903180054 | 93 | 103 | 5.0 | 14.0 | 0.00 | 0.00 | 0.00 | 51 | 1012.4 |
| 20260903174535 | 92 | 187 | 3.0 | 11.0 | 0.00 | 0.00 | 0.00 | 52 | 1012.4 |
| 20260903173034 | 92 | 193 | 4.0 | 13.0 | 0.00 | 0.00 | 0.00 | 53 | 1012.5 |
| 20260903171531 | 91 | 148 | 8.0 | 14.0 | 0.00 | 0.00 | 0.00 | 55 | 1012.9 |
| 20260903170043 | 90 | 125 | 6.0 | 15.0 | 0.00 | 0.00 | 0.00 | 56 | 1013.0 |
| 20260903164533 | 90 | 230 | 5.0 | 14.0 | 0.00 | 0.00 | 0.00 | 57 | 1013.1 |
| 20260903163024 | 89 | 195 | 7.0 | 14.0 | 0.00 | 0.00 | 0.00 | 58 | 1013.1 |
| 20260903161527 | 88 | 148 | 7.0 | 17.0 | 0.00 | 0.00 | 0.00 | 59 | 1013.2 |
| 20260903160025 | 87 | 176 | 7.0 | 15.0 | 0.00 | 0.00 | 0.00 | 61 | 1013.2 |
| 20260903154519 | 87 | 235 | 5.0 | 11.0 | 0.00 | 0.00 | 0.00 | 65 | 1013.1 |
| 20260903153018 | 86 | 230 | 5.0 | 13.0 | 0.00 | 0.00 | 0.00 | 67 | 1013.1 |
| 20260903151513 | 85 | 221 | 6.0 | 13.0 | 0.00 | 0.00 | 0.00 | 69 | 1013.0 |
| 20260903150012 | 84 | 236 | 6.0 | 13.0 | 0.00 | 0.00 | 0.00 | 71 | 1013.0 |
| 20260903144509 | 83 | 232 | 8.0 | 0.0 | 0.00 | 0.00 | 0.00 | 73 | 1013.0 |
| 20260903143007 | 83 | 210 | 7.0 | 16.0 | 0.00 | 0.00 | 0.00 | 73 | 1013.0 |
| 20260903141506 | 82 | 173 | 7.0 | 16.0 | 0.00 | 0.00 | 0.00 | 78 | 1013.0 |
| 20260903140005 | 81 | 204 | 5.0 | 18.0 | 0.00 | 0.00 | 0.00 | 80 | 1013.0 |
| 20260903134503 | 81 | 170 | 9.0 | 17.0 | 0.00 | 0.00 | 0.00 | 81 | 1013.1 |
| 20260903133003 | 80 | 210 | 7.0 | 14.0 | 0.00 | 0.00 | 0.00 | 82 | 1013.2 |
| 20260903131503 | 80 | 185 | 3.0 | 10.0 | 0.00 | 0.00 | 0.00 | 83 | 1013.1 |
| 20260903130002 | 79 | 231 | 5.0 | 13.0 | 0.00 | 0.00 | 0.00 | 84 | 1013.0 |
| 20260903124503 | 79 | 208 | 6.0 | 14.0 | 0.00 | 0.00 | 0.00 | 85 | 1013.0 |
| 20260903123100 | 78 | 221 | 5.0 | 12.0 | 0.00 | 0.00 | 0.00 | 86 | 1012.9 |
| 20260903121601 | 78 | 212 | 6.0 | 13.0 | 0.00 | 0.00 | 0.00 | 86 | 1012.7 |
| 20260903120059 | 78 | 192 | 6.0 | 15.0 | 0.00 | 0.00 | 0.00 | 87 | 1012.5 |
| 20260903114608 | 78 | 195 | 7.0 | 14.0 | 0.00 | 0.00 | 0.00 | 87 | 1012.5 |
| 20260903113105 | 78 | 182 | 5.0 | 15.0 | 0.00 | 0.00 | 0.00 | 87 | 1012.5 |
| 20260903111554 | 78 | 167 | 6.0 | 16.0 | 0.00 | 0.00 | 0.00 | 87 | 1012.4 |